sensor_id;sensor_type;location;lat;lon;timestamp;P1;durP1;ratioP1;P2;durP2;ratioP2
22223;SDS011;11281;52.194;21.006;2022-07-10T00:03:18;6.80;;;4.20;;
22223;SDS011;11281;52.194;21.006;2022-07-10T00:07:20;5.47;;;4.47;;
22223;SDS011;11281;52.194;21.006;2022-07-10T00:11:22;5.93;;;4.28;;
22223;SDS011;11281;52.194;21.006;2022-07-10T00:15:24;6.25;;;4.40;;
22223;SDS011;11281;52.194;21.006;2022-07-10T00:19:26;7.45;;;4.10;;
22223;SDS011;11281;52.194;21.006;2022-07-10T00:23:28;4.28;;;3.80;;
22223;SDS011;11281;52.194;21.006;2022-07-10T00:27:29;5.07;;;4.05;;
22223;SDS011;11281;52.194;21.006;2022-07-10T00:31:31;6.43;;;3.88;;
22223;SDS011;11281;52.194;21.006;2022-07-10T00:35:33;5.75;;;3.63;;
22223;SDS011;11281;52.194;21.006;2022-07-10T00:39:34;4.28;;;3.70;;
22223;SDS011;11281;52.194;21.006;2022-07-10T00:43:52;4.97;;;3.65;;
22223;SDS011;11281;52.194;21.006;2022-07-10T00:47:58;3.78;;;3.40;;
22223;SDS011;11281;52.194;21.006;2022-07-10T00:52:06;4.35;;;3.35;;
22223;SDS011;11281;52.194;21.006;2022-07-10T00:56:10;4.85;;;2.88;;
22223;SDS011;11281;52.194;21.006;2022-07-10T01:00:15;5.78;;;3.10;;
22223;SDS011;11281;52.194;21.006;2022-07-10T01:04:17;4.18;;;3.03;;
22223;SDS011;11281;52.194;21.006;2022-07-10T01:08:19;5.32;;;2.70;;
22223;SDS011;11281;52.194;21.006;2022-07-10T01:12:21;4.55;;;2.58;;
22223;SDS011;11281;52.194;21.006;2022-07-10T01:16:23;3.33;;;2.45;;
22223;SDS011;11281;52.194;21.006;2022-07-10T01:20:29;4.85;;;3.03;;
22223;SDS011;11281;52.194;21.006;2022-07-10T01:24:32;4.93;;;2.58;;
22223;SDS011;11281;52.194;21.006;2022-07-10T01:28:35;4.70;;;2.53;;
22223;SDS011;11281;52.194;21.006;2022-07-10T01:32:38;3.22;;;2.70;;
22223;SDS011;11281;52.194;21.006;2022-07-10T01:36:40;5.20;;;2.80;;
22223;SDS011;11281;52.194;21.006;2022-07-10T01:40:42;4.93;;;2.70;;
22223;SDS011;11281;52.194;21.006;2022-07-10T01:44:43;5.60;;;2.53;;
22223;SDS011;11281;52.194;21.006;2022-07-10T01:48:45;5.13;;;2.53;;
22223;SDS011;11281;52.194;21.006;2022-07-10T01:52:46;5.32;;;2.67;;
22223;SDS011;11281;52.194;21.006;2022-07-10T01:56:48;3.65;;;2.50;;
22223;SDS011;11281;52.194;21.006;2022-07-10T02:00:49;5.10;;;2.28;;
22223;SDS011;11281;52.194;21.006;2022-07-10T02:04:51;6.80;;;2.72;;
22223;SDS011;11281;52.194;21.006;2022-07-10T02:08:53;5.85;;;2.60;;
22223;SDS011;11281;52.194;21.006;2022-07-10T02:12:54;2.72;;;2.50;;
22223;SDS011;11281;52.194;21.006;2022-07-10T02:16:56;5.05;;;2.53;;
22223;SDS011;11281;52.194;21.006;2022-07-10T02:20:58;3.38;;;2.83;;
22223;SDS011;11281;52.194;21.006;2022-07-10T02:25:00;3.33;;;2.20;;
22223;SDS011;11281;52.194;21.006;2022-07-10T02:29:01;4.30;;;2.58;;
22223;SDS011;11281;52.194;21.006;2022-07-10T02:33:04;4.70;;;2.58;;
22223;SDS011;11281;52.194;21.006;2022-07-10T02:37:05;3.65;;;2.75;;
22223;SDS011;11281;52.194;21.006;2022-07-10T02:41:07;4.57;;;2.33;;
22223;SDS011;11281;52.194;21.006;2022-07-10T02:45:08;3.55;;;2.35;;
22223;SDS011;11281;52.194;21.006;2022-07-10T02:49:10;4.03;;;2.50;;
22223;SDS011;11281;52.194;21.006;2022-07-10T02:53:12;3.70;;;2.38;;
22223;SDS011;11281;52.194;21.006;2022-07-10T02:57:13;4.07;;;2.42;;
22223;SDS011;11281;52.194;21.006;2022-07-10T03:01:15;2.67;;;2.38;;
22223;SDS011;11281;52.194;21.006;2022-07-10T03:05:17;5.00;;;2.58;;
22223;SDS011;11281;52.194;21.006;2022-07-10T03:09:19;5.85;;;2.60;;
22223;SDS011;11281;52.194;21.006;2022-07-10T03:13:20;2.83;;;2.15;;
22223;SDS011;11281;52.194;21.006;2022-07-10T03:17:22;3.00;;;2.10;;
22223;SDS011;11281;52.194;21.006;2022-07-10T03:21:24;4.38;;;2.35;;
22223;SDS011;11281;52.194;21.006;2022-07-10T03:25:25;5.47;;;2.20;;
22223;SDS011;11281;52.194;21.006;2022-07-10T03:29:27;4.25;;;2.33;;
22223;SDS011;11281;52.194;21.006;2022-07-10T03:33:28;6.15;;;2.83;;
22223;SDS011;11281;52.194;21.006;2022-07-10T03:37:30;8.63;;;2.72;;
22223;SDS011;11281;52.194;21.006;2022-07-10T03:41:31;3.65;;;2.30;;
22223;SDS011;11281;52.194;21.006;2022-07-10T03:45:33;7.35;;;2.42;;
22223;SDS011;11281;52.194;21.006;2022-07-10T03:49:35;2.33;;;2.10;;
22223;SDS011;11281;52.194;21.006;2022-07-10T03:53:36;3.38;;;2.28;;
22223;SDS011;11281;52.194;21.006;2022-07-10T03:57:38;4.47;;;2.67;;
22223;SDS011;11281;52.194;21.006;2022-07-10T04:01:55;3.10;;;2.20;;
22223;SDS011;11281;52.194;21.006;2022-07-10T04:05:56;5.47;;;2.28;;
22223;SDS011;11281;52.194;21.006;2022-07-10T04:09:57;5.38;;;2.10;;
22223;SDS011;11281;52.194;21.006;2022-07-10T04:13:59;3.97;;;1.90;;
22223;SDS011;11281;52.194;21.006;2022-07-10T04:18:00;5.50;;;1.95;;
22223;SDS011;11281;52.194;21.006;2022-07-10T04:22:02;6.32;;;2.45;;
22223;SDS011;11281;52.194;21.006;2022-07-10T04:26:04;3.92;;;2.03;;
22223;SDS011;11281;52.194;21.006;2022-07-10T04:30:06;3.17;;;1.80;;
22223;SDS011;11281;52.194;21.006;2022-07-10T04:34:16;5.32;;;1.90;;
22223;SDS011;11281;52.194;21.006;2022-07-10T04:38:18;4.15;;;2.10;;
22223;SDS011;11281;52.194;21.006;2022-07-10T04:42:19;5.68;;;2.00;;
22223;SDS011;11281;52.194;21.006;2022-07-10T04:46:21;3.97;;;2.03;;
22223;SDS011;11281;52.194;21.006;2022-07-10T04:50:23;2.58;;;1.48;;
22223;SDS011;11281;52.194;21.006;2022-07-10T04:54:25;4.05;;;1.58;;
22223;SDS011;11281;52.194;21.006;2022-07-10T04:58:26;4.13;;;1.90;;
22223;SDS011;11281;52.194;21.006;2022-07-10T05:02:29;3.78;;;1.52;;
22223;SDS011;11281;52.194;21.006;2022-07-10T05:06:30;6.15;;;2.05;;
22223;SDS011;11281;52.194;21.006;2022-07-10T05:10:33;3.50;;;1.60;;
22223;SDS011;11281;52.194;21.006;2022-07-10T05:14:34;3.67;;;1.45;;
22223;SDS011;11281;52.194;21.006;2022-07-10T05:18:36;2.38;;;1.10;;
22223;SDS011;11281;52.194;21.006;2022-07-10T05:22:37;3.65;;;1.42;;
22223;SDS011;11281;52.194;21.006;2022-07-10T05:26:39;4.72;;;1.60;;
22223;SDS011;11281;52.194;21.006;2022-07-10T05:30:41;5.97;;;2.13;;
22223;SDS011;11281;52.194;21.006;2022-07-10T05:34:43;5.28;;;1.50;;
22223;SDS011;11281;52.194;21.006;2022-07-10T05:38:44;4.43;;;1.67;;
22223;SDS011;11281;52.194;21.006;2022-07-10T05:42:46;2.00;;;1.63;;
22223;SDS011;11281;52.194;21.006;2022-07-10T05:46:48;3.47;;;1.80;;
22223;SDS011;11281;52.194;21.006;2022-07-10T05:50:49;3.40;;;1.85;;
22223;SDS011;11281;52.194;21.006;2022-07-10T05:54:50;5.70;;;1.70;;
22223;SDS011;11281;52.194;21.006;2022-07-10T05:58:52;2.63;;;1.58;;
22223;SDS011;11281;52.194;21.006;2022-07-10T06:02:56;2.90;;;1.55;;
22223;SDS011;11281;52.194;21.006;2022-07-10T06:06:57;2.65;;;1.58;;
22223;SDS011;11281;52.194;21.006;2022-07-10T06:10:59;3.10;;;1.20;;
22223;SDS011;11281;52.194;21.006;2022-07-10T06:15:01;4.63;;;1.30;;
22223;SDS011;11281;52.194;21.006;2022-07-10T06:19:04;6.70;;;1.33;;
22223;SDS011;11281;52.194;21.006;2022-07-10T06:23:06;4.68;;;1.70;;
22223;SDS011;11281;52.194;21.006;2022-07-10T06:27:08;4.18;;;1.30;;
22223;SDS011;11281;52.194;21.006;2022-07-10T06:31:09;1.55;;;1.08;;
22223;SDS011;11281;52.194;21.006;2022-07-10T06:35:11;3.30;;;1.33;;
22223;SDS011;11281;52.194;21.006;2022-07-10T06:39:13;3.10;;;1.17;;
22223;SDS011;11281;52.194;21.006;2022-07-10T06:43:15;2.70;;;1.23;;
22223;SDS011;11281;52.194;21.006;2022-07-10T06:47:17;1.95;;;1.13;;
22223;SDS011;11281;52.194;21.006;2022-07-10T06:51:38;8.80;;;1.58;;
22223;SDS011;11281;52.194;21.006;2022-07-10T06:55:40;2.03;;;1.20;;
22223;SDS011;11281;52.194;21.006;2022-07-10T06:59:41;2.83;;;2.03;;
22223;SDS011;11281;52.194;21.006;2022-07-10T07:03:43;2.83;;;1.20;;
22223;SDS011;11281;52.194;21.006;2022-07-10T07:07:45;5.32;;;1.85;;
22223;SDS011;11281;52.194;21.006;2022-07-10T07:11:46;4.47;;;1.50;;
22223;SDS011;11281;52.194;21.006;2022-07-10T07:15:48;7.22;;;1.60;;
22223;SDS011;11281;52.194;21.006;2022-07-10T07:20:01;1.70;;;1.10;;
22223;SDS011;11281;52.194;21.006;2022-07-10T07:24:22;2.08;;;1.23;;
22223;SDS011;11281;52.194;21.006;2022-07-10T07:28:24;3.92;;;1.30;;
22223;SDS011;11281;52.194;21.006;2022-07-10T07:32:25;3.67;;;1.40;;
22223;SDS011;11281;52.194;21.006;2022-07-10T07:36:29;4.68;;;1.17;;
22223;SDS011;11281;52.194;21.006;2022-07-10T07:40:31;5.03;;;1.50;;
22223;SDS011;11281;52.194;21.006;2022-07-10T07:44:33;3.38;;;1.38;;
22223;SDS011;11281;52.194;21.006;2022-07-10T07:48:34;3.53;;;1.13;;
22223;SDS011;11281;52.194;21.006;2022-07-10T07:52:36;3.38;;;1.00;;
22223;SDS011;11281;52.194;21.006;2022-07-10T07:56:37;4.97;;;1.10;;
22223;SDS011;11281;52.194;21.006;2022-07-10T08:00:39;4.95;;;1.40;;
22223;SDS011;11281;52.194;21.006;2022-07-10T08:04:41;2.97;;;0.98;;
22223;SDS011;11281;52.194;21.006;2022-07-10T08:08:43;2.53;;;1.10;;
22223;SDS011;11281;52.194;21.006;2022-07-10T08:12:45;2.25;;;1.02;;
22223;SDS011;11281;52.194;21.006;2022-07-10T08:16:48;3.63;;;1.25;;
22223;SDS011;11281;52.194;21.006;2022-07-10T08:20:51;6.20;;;1.38;;
22223;SDS011;11281;52.194;21.006;2022-07-10T08:24:52;4.00;;;1.20;;
22223;SDS011;11281;52.194;21.006;2022-07-10T08:28:54;4.85;;;1.25;;
22223;SDS011;11281;52.194;21.006;2022-07-10T08:32:56;4.35;;;1.52;;
22223;SDS011;11281;52.194;21.006;2022-07-10T08:36:57;2.17;;;1.00;;
22223;SDS011;11281;52.194;21.006;2022-07-10T08:40:59;2.47;;;1.17;;
22223;SDS011;11281;52.194;21.006;2022-07-10T08:45:04;1.75;;;0.88;;
22223;SDS011;11281;52.194;21.006;2022-07-10T08:49:08;2.50;;;0.90;;
22223;SDS011;11281;52.194;21.006;2022-07-10T08:53:18;2.65;;;0.77;;
22223;SDS011;11281;52.194;21.006;2022-07-10T08:57:31;1.77;;;0.88;;
22223;SDS011;11281;52.194;21.006;2022-07-10T09:01:34;2.42;;;0.90;;
22223;SDS011;11281;52.194;21.006;2022-07-10T09:05:35;2.30;;;0.65;;
22223;SDS011;11281;52.194;21.006;2022-07-10T09:09:53;2.90;;;0.75;;
22223;SDS011;11281;52.194;21.006;2022-07-10T09:13:58;1.95;;;0.70;;
22223;SDS011;11281;52.194;21.006;2022-07-10T09:18:09;4.88;;;0.88;;
22223;SDS011;11281;52.194;21.006;2022-07-10T09:22:11;3.88;;;0.65;;
22223;SDS011;11281;52.194;21.006;2022-07-10T09:26:15;1.38;;;0.60;;
22223;SDS011;11281;52.194;21.006;2022-07-10T09:30:36;1.48;;;0.80;;
22223;SDS011;11281;52.194;21.006;2022-07-10T09:34:43;2.75;;;0.60;;
22223;SDS011;11281;52.194;21.006;2022-07-10T09:38:48;2.13;;;0.63;;
22223;SDS011;11281;52.194;21.006;2022-07-10T09:42:51;1.52;;;0.60;;
22223;SDS011;11281;52.194;21.006;2022-07-10T09:46:54;1.70;;;0.68;;
22223;SDS011;11281;52.194;21.006;2022-07-10T09:50:56;3.35;;;0.95;;
22223;SDS011;11281;52.194;21.006;2022-07-10T09:54:58;3.58;;;1.20;;
22223;SDS011;11281;52.194;21.006;2022-07-10T09:59:05;1.45;;;0.90;;
22223;SDS011;11281;52.194;21.006;2022-07-10T10:03:11;2.53;;;1.20;;
22223;SDS011;11281;52.194;21.006;2022-07-10T10:07:17;3.22;;;1.02;;
22223;SDS011;11281;52.194;21.006;2022-07-10T10:11:20;2.47;;;0.98;;
22223;SDS011;11281;52.194;21.006;2022-07-10T10:15:22;3.58;;;1.70;;
22223;SDS011;11281;52.194;21.006;2022-07-10T10:19:25;3.22;;;1.40;;
22223;SDS011;11281;52.194;21.006;2022-07-10T10:23:45;3.67;;;0.90;;
22223;SDS011;11281;52.194;21.006;2022-07-10T10:27:48;3.65;;;1.10;;
22223;SDS011;11281;52.194;21.006;2022-07-10T10:31:50;6.97;;;1.65;;
22223;SDS011;11281;52.194;21.006;2022-07-10T10:35:52;2.92;;;1.13;;
22223;SDS011;11281;52.194;21.006;2022-07-10T10:39:54;2.88;;;0.90;;
22223;SDS011;11281;52.194;21.006;2022-07-10T10:48:09;1.77;;;0.80;;
22223;SDS011;11281;52.194;21.006;2022-07-10T10:52:12;4.15;;;0.88;;
22223;SDS011;11281;52.194;21.006;2022-07-10T11:00:30;2.45;;;0.60;;
22223;SDS011;11281;52.194;21.006;2022-07-10T11:04:38;2.85;;;0.80;;
22223;SDS011;11281;52.194;21.006;2022-07-10T11:08:41;3.15;;;1.00;;
22223;SDS011;11281;52.194;21.006;2022-07-10T11:17:04;1.33;;;1.00;;
22223;SDS011;11281;52.194;21.006;2022-07-10T11:21:07;4.00;;;1.00;;
22223;SDS011;11281;52.194;21.006;2022-07-10T11:29:42;4.47;;;0.85;;
22223;SDS011;11281;52.194;21.006;2022-07-10T11:33:48;3.28;;;1.00;;
22223;SDS011;11281;52.194;21.006;2022-07-10T11:37:52;3.53;;;0.90;;
22223;SDS011;11281;52.194;21.006;2022-07-10T11:41:54;5.18;;;1.52;;
22223;SDS011;11281;52.194;21.006;2022-07-10T11:45:55;4.82;;;1.35;;
22223;SDS011;11281;52.194;21.006;2022-07-10T11:50:01;2.88;;;1.30;;
22223;SDS011;11281;52.194;21.006;2022-07-10T11:54:10;3.67;;;1.10;;
22223;SDS011;11281;52.194;21.006;2022-07-10T11:58:19;3.65;;;1.08;;
22223;SDS011;11281;52.194;21.006;2022-07-10T12:02:21;5.00;;;1.45;;
22223;SDS011;11281;52.194;21.006;2022-07-10T12:06:24;7.90;;;1.13;;
22223;SDS011;11281;52.194;21.006;2022-07-10T12:10:27;5.03;;;1.20;;
22223;SDS011;11281;52.194;21.006;2022-07-10T12:14:34;4.33;;;1.00;;
22223;SDS011;11281;52.194;21.006;2022-07-10T12:18:37;2.53;;;0.90;;
22223;SDS011;11281;52.194;21.006;2022-07-10T12:22:41;2.25;;;0.95;;
22223;SDS011;11281;52.194;21.006;2022-07-10T12:26:43;6.72;;;0.85;;
22223;SDS011;11281;52.194;21.006;2022-07-10T12:30:46;3.15;;;0.98;;
22223;SDS011;11281;52.194;21.006;2022-07-10T12:34:52;4.85;;;1.10;;
22223;SDS011;11281;52.194;21.006;2022-07-10T12:39:00;3.85;;;1.27;;
22223;SDS011;11281;52.194;21.006;2022-07-10T12:43:02;1.77;;;1.27;;
22223;SDS011;11281;52.194;21.006;2022-07-10T12:47:05;2.60;;;1.08;;
22223;SDS011;11281;52.194;21.006;2022-07-10T12:51:32;1.33;;;1.00;;
22223;SDS011;11281;52.194;21.006;2022-07-10T12:55:46;1.45;;;0.90;;
22223;SDS011;11281;52.194;21.006;2022-07-10T12:59:48;3.92;;;1.10;;
22223;SDS011;11281;52.194;21.006;2022-07-10T13:03:56;2.95;;;0.90;;
22223;SDS011;11281;52.194;21.006;2022-07-10T13:08:12;1.15;;;0.80;;
22223;SDS011;11281;52.194;21.006;2022-07-10T13:12:20;1.67;;;0.80;;
22223;SDS011;11281;52.194;21.006;2022-07-10T13:16:22;2.33;;;1.05;;
22223;SDS011;11281;52.194;21.006;2022-07-10T13:20:24;3.42;;;1.30;;
22223;SDS011;11281;52.194;21.006;2022-07-10T13:24:25;1.17;;;0.70;;
22223;SDS011;11281;52.194;21.006;2022-07-10T13:28:27;1.45;;;0.95;;
22223;SDS011;11281;52.194;21.006;2022-07-10T13:32:29;1.27;;;0.65;;
22223;SDS011;11281;52.194;21.006;2022-07-10T13:36:31;2.40;;;0.77;;
22223;SDS011;11281;52.194;21.006;2022-07-10T13:40:36;1.60;;;0.80;;
22223;SDS011;11281;52.194;21.006;2022-07-10T13:44:38;2.45;;;0.80;;
22223;SDS011;11281;52.194;21.006;2022-07-10T13:48:40;4.50;;;0.85;;
22223;SDS011;11281;52.194;21.006;2022-07-10T13:52:41;2.92;;;1.25;;
22223;SDS011;11281;52.194;21.006;2022-07-10T13:56:43;3.10;;;0.77;;
22223;SDS011;11281;52.194;21.006;2022-07-10T14:00:46;2.45;;;0.90;;
22223;SDS011;11281;52.194;21.006;2022-07-10T14:04:47;4.75;;;1.40;;
22223;SDS011;11281;52.194;21.006;2022-07-10T14:08:49;6.70;;;1.63;;
22223;SDS011;11281;52.194;21.006;2022-07-10T14:12:54;1.98;;;1.30;;
22223;SDS011;11281;52.194;21.006;2022-07-10T14:16:57;2.55;;;1.00;;
22223;SDS011;11281;52.194;21.006;2022-07-10T14:20:59;2.55;;;1.17;;
22223;SDS011;11281;52.194;21.006;2022-07-10T14:25:05;2.10;;;1.13;;
22223;SDS011;11281;52.194;21.006;2022-07-10T14:29:11;2.13;;;1.00;;
22223;SDS011;11281;52.194;21.006;2022-07-10T14:33:13;2.75;;;0.90;;
22223;SDS011;11281;52.194;21.006;2022-07-10T14:37:16;0.73;;;0.57;;
22223;SDS011;11281;52.194;21.006;2022-07-10T14:41:17;1.85;;;0.77;;
22223;SDS011;11281;52.194;21.006;2022-07-10T14:45:19;0.75;;;0.60;;
22223;SDS011;11281;52.194;21.006;2022-07-10T14:49:21;2.77;;;0.70;;
22223;SDS011;11281;52.194;21.006;2022-07-10T14:53:23;0.75;;;0.50;;
22223;SDS011;11281;52.194;21.006;2022-07-10T14:57:26;1.33;;;0.45;;
22223;SDS011;11281;52.194;21.006;2022-07-10T15:01:28;1.05;;;0.50;;
22223;SDS011;11281;52.194;21.006;2022-07-10T15:05:30;0.50;;;0.50;;
22223;SDS011;11281;52.194;21.006;2022-07-10T15:09:34;0.30;;;0.30;;
22223;SDS011;11281;52.194;21.006;2022-07-10T15:13:35;0.35;;;0.35;;
22223;SDS011;11281;52.194;21.006;2022-07-10T15:17:38;0.20;;;0.20;;
22223;SDS011;11281;52.194;21.006;2022-07-10T15:21:40;0.45;;;0.25;;
22223;SDS011;11281;52.194;21.006;2022-07-10T15:25:41;0.55;;;0.35;;
22223;SDS011;11281;52.194;21.006;2022-07-10T15:29:44;0.45;;;0.40;;
22223;SDS011;11281;52.194;21.006;2022-07-10T15:33:46;0.57;;;0.40;;
22223;SDS011;11281;52.194;21.006;2022-07-10T15:37:47;0.55;;;0.30;;
22223;SDS011;11281;52.194;21.006;2022-07-10T15:41:49;0.95;;;0.50;;
22223;SDS011;11281;52.194;21.006;2022-07-10T15:45:51;1.23;;;0.40;;
22223;SDS011;11281;52.194;21.006;2022-07-10T15:49:53;0.73;;;0.68;;
22223;SDS011;11281;52.194;21.006;2022-07-10T15:53:55;1.73;;;0.65;;
22223;SDS011;11281;52.194;21.006;2022-07-10T15:57:57;0.63;;;0.60;;
22223;SDS011;11281;52.194;21.006;2022-07-10T16:01:58;1.85;;;0.52;;
22223;SDS011;11281;52.194;21.006;2022-07-10T16:06:00;2.40;;;0.88;;
22223;SDS011;11281;52.194;21.006;2022-07-10T16:10:02;0.63;;;0.63;;
22223;SDS011;11281;52.194;21.006;2022-07-10T16:14:04;1.30;;;0.85;;
22223;SDS011;11281;52.194;21.006;2022-07-10T16:18:07;1.10;;;0.52;;
22223;SDS011;11281;52.194;21.006;2022-07-10T16:22:09;0.70;;;0.70;;
22223;SDS011;11281;52.194;21.006;2022-07-10T16:26:10;1.70;;;0.90;;
22223;SDS011;11281;52.194;21.006;2022-07-10T16:30:13;0.60;;;0.60;;
22223;SDS011;11281;52.194;21.006;2022-07-10T16:34:14;0.52;;;0.50;;
22223;SDS011;11281;52.194;21.006;2022-07-10T16:38:16;1.17;;;0.70;;
22223;SDS011;11281;52.194;21.006;2022-07-10T16:42:18;1.05;;;0.73;;
22223;SDS011;11281;52.194;21.006;2022-07-10T16:46:19;1.33;;;0.70;;
22223;SDS011;11281;52.194;21.006;2022-07-10T16:50:21;0.63;;;0.63;;
22223;SDS011;11281;52.194;21.006;2022-07-10T16:54:23;0.63;;;0.63;;
22223;SDS011;11281;52.194;21.006;2022-07-10T16:58:24;0.65;;;0.50;;
22223;SDS011;11281;52.194;21.006;2022-07-10T17:02:26;2.10;;;0.73;;
22223;SDS011;11281;52.194;21.006;2022-07-10T17:06:28;1.30;;;0.88;;
22223;SDS011;11281;52.194;21.006;2022-07-10T17:10:30;2.55;;;1.00;;
22223;SDS011;11281;52.194;21.006;2022-07-10T17:14:32;3.65;;;0.93;;
22223;SDS011;11281;52.194;21.006;2022-07-10T17:18:34;1.00;;;0.90;;
22223;SDS011;11281;52.194;21.006;2022-07-10T17:22:36;1.30;;;0.75;;
22223;SDS011;11281;52.194;21.006;2022-07-10T17:26:39;0.75;;;0.60;;
22223;SDS011;11281;52.194;21.006;2022-07-10T17:30:42;2.15;;;0.90;;
22223;SDS011;11281;52.194;21.006;2022-07-10T17:34:44;1.55;;;0.93;;
22223;SDS011;11281;52.194;21.006;2022-07-10T17:38:45;1.13;;;0.70;;
22223;SDS011;11281;52.194;21.006;2022-07-10T17:42:49;0.98;;;0.80;;
22223;SDS011;11281;52.194;21.006;2022-07-10T17:46:51;0.75;;;0.70;;
22223;SDS011;11281;52.194;21.006;2022-07-10T17:50:54;3.95;;;1.20;;
22223;SDS011;11281;52.194;21.006;2022-07-10T17:54:56;1.42;;;1.08;;
22223;SDS011;11281;52.194;21.006;2022-07-10T17:58:58;1.45;;;0.88;;
22223;SDS011;11281;52.194;21.006;2022-07-10T18:02:59;3.20;;;0.70;;
22223;SDS011;11281;52.194;21.006;2022-07-10T18:07:01;0.90;;;0.80;;
22223;SDS011;11281;52.194;21.006;2022-07-10T18:11:03;1.23;;;0.80;;
22223;SDS011;11281;52.194;21.006;2022-07-10T18:15:07;1.17;;;1.02;;
22223;SDS011;11281;52.194;21.006;2022-07-10T18:19:10;2.38;;;0.90;;
22223;SDS011;11281;52.194;21.006;2022-07-10T18:23:11;1.05;;;0.90;;
22223;SDS011;11281;52.194;21.006;2022-07-10T18:27:13;1.30;;;1.20;;
22223;SDS011;11281;52.194;21.006;2022-07-10T18:31:15;2.08;;;1.00;;
22223;SDS011;11281;52.194;21.006;2022-07-10T18:35:16;1.33;;;1.00;;
22223;SDS011;11281;52.194;21.006;2022-07-10T18:39:18;2.08;;;1.10;;
22223;SDS011;11281;52.194;21.006;2022-07-10T18:43:20;0.75;;;0.75;;
22223;SDS011;11281;52.194;21.006;2022-07-10T18:47:22;0.95;;;0.88;;
22223;SDS011;11281;52.194;21.006;2022-07-10T18:51:24;1.52;;;1.13;;
22223;SDS011;11281;52.194;21.006;2022-07-10T18:55:26;5.28;;;1.02;;
22223;SDS011;11281;52.194;21.006;2022-07-10T18:59:27;2.85;;;1.02;;
22223;SDS011;11281;52.194;21.006;2022-07-10T19:03:29;2.53;;;1.08;;
22223;SDS011;11281;52.194;21.006;2022-07-10T19:07:31;0.75;;;0.75;;
22223;SDS011;11281;52.194;21.006;2022-07-10T19:11:32;1.17;;;1.08;;
22223;SDS011;11281;52.194;21.006;2022-07-10T19:15:35;3.42;;;1.23;;
22223;SDS011;11281;52.194;21.006;2022-07-10T19:19:37;1.73;;;1.10;;
22223;SDS011;11281;52.194;21.006;2022-07-10T19:23:38;1.83;;;1.00;;
22223;SDS011;11281;52.194;21.006;2022-07-10T19:27:40;3.75;;;2.00;;
22223;SDS011;11281;52.194;21.006;2022-07-10T19:31:45;1.38;;;1.02;;
22223;SDS011;11281;52.194;21.006;2022-07-10T19:35:49;1.73;;;1.13;;
22223;SDS011;11281;52.194;21.006;2022-07-10T19:39:51;3.72;;;1.33;;
22223;SDS011;11281;52.194;21.006;2022-07-10T19:43:53;5.18;;;1.23;;
22223;SDS011;11281;52.194;21.006;2022-07-10T19:47:59;1.90;;;1.30;;
22223;SDS011;11281;52.194;21.006;2022-07-10T19:52:02;2.88;;;1.10;;
22223;SDS011;11281;52.194;21.006;2022-07-10T19:56:05;1.00;;;1.00;;
22223;SDS011;11281;52.194;21.006;2022-07-10T20:00:07;2.10;;;1.42;;
22223;SDS011;11281;52.194;21.006;2022-07-10T20:04:10;5.00;;;1.25;;
22223;SDS011;11281;52.194;21.006;2022-07-10T20:08:12;2.38;;;1.17;;
22223;SDS011;11281;52.194;21.006;2022-07-10T20:12:13;2.58;;;1.35;;
22223;SDS011;11281;52.194;21.006;2022-07-10T20:16:17;5.60;;;1.25;;
22223;SDS011;11281;52.194;21.006;2022-07-10T20:20:19;2.03;;;1.40;;
22223;SDS011;11281;52.194;21.006;2022-07-10T20:24:20;3.80;;;1.67;;
22223;SDS011;11281;52.194;21.006;2022-07-10T20:28:22;2.75;;;1.95;;
22223;SDS011;11281;52.194;21.006;2022-07-10T20:32:24;1.70;;;1.60;;
22223;SDS011;11281;52.194;21.006;2022-07-10T20:36:25;1.70;;;1.10;;
22223;SDS011;11281;52.194;21.006;2022-07-10T20:40:46;1.58;;;1.40;;
22223;SDS011;11281;52.194;21.006;2022-07-10T20:44:50;3.88;;;1.45;;
22223;SDS011;11281;52.194;21.006;2022-07-10T20:48:54;2.17;;;1.50;;
22223;SDS011;11281;52.194;21.006;2022-07-10T20:52:58;4.90;;;1.52;;
22223;SDS011;11281;52.194;21.006;2022-07-10T20:57:02;3.47;;;1.80;;
22223;SDS011;11281;52.194;21.006;2022-07-10T21:01:05;2.10;;;1.90;;
22223;SDS011;11281;52.194;21.006;2022-07-10T21:05:06;3.67;;;1.40;;
22223;SDS011;11281;52.194;21.006;2022-07-10T21:09:09;2.40;;;1.40;;
22223;SDS011;11281;52.194;21.006;2022-07-10T21:13:11;1.90;;;1.48;;
22223;SDS011;11281;52.194;21.006;2022-07-10T21:17:15;3.47;;;1.95;;
22223;SDS011;11281;52.194;21.006;2022-07-10T21:21:16;3.83;;;2.25;;
22223;SDS011;11281;52.194;21.006;2022-07-10T21:25:18;6.97;;;2.63;;
22223;SDS011;11281;52.194;21.006;2022-07-10T21:29:20;3.92;;;2.00;;
22223;SDS011;11281;52.194;21.006;2022-07-10T21:33:22;5.70;;;2.40;;
22223;SDS011;11281;52.194;21.006;2022-07-10T21:37:23;3.20;;;2.10;;
22223;SDS011;11281;52.194;21.006;2022-07-10T21:41:25;6.80;;;2.22;;
22223;SDS011;11281;52.194;21.006;2022-07-10T21:45:27;3.42;;;2.20;;
22223;SDS011;11281;52.194;21.006;2022-07-10T21:49:28;9.55;;;2.20;;
22223;SDS011;11281;52.194;21.006;2022-07-10T21:53:31;2.10;;;1.52;;
22223;SDS011;11281;52.194;21.006;2022-07-10T21:57:32;12.98;;;2.50;;
22223;SDS011;11281;52.194;21.006;2022-07-10T22:01:36;2.45;;;1.75;;
22223;SDS011;11281;52.194;21.006;2022-07-10T22:05:37;2.95;;;1.90;;
22223;SDS011;11281;52.194;21.006;2022-07-10T22:09:39;2.15;;;1.95;;
22223;SDS011;11281;52.194;21.006;2022-07-10T22:13:41;8.65;;;2.47;;
22223;SDS011;11281;52.194;21.006;2022-07-10T22:17:42;5.05;;;1.75;;
22223;SDS011;11281;52.194;21.006;2022-07-10T22:21:44;1.92;;;1.75;;
22223;SDS011;11281;52.194;21.006;2022-07-10T22:25:46;6.75;;;1.98;;
22223;SDS011;11281;52.194;21.006;2022-07-10T22:29:48;3.22;;;2.03;;
22223;SDS011;11281;52.194;21.006;2022-07-10T22:33:51;3.13;;;2.10;;
22223;SDS011;11281;52.194;21.006;2022-07-10T22:37:55;5.80;;;2.83;;
22223;SDS011;11281;52.194;21.006;2022-07-10T22:41:57;6.18;;;2.78;;
22223;SDS011;11281;52.194;21.006;2022-07-10T22:45:58;8.52;;;2.25;;
22223;SDS011;11281;52.194;21.006;2022-07-10T22:50:00;3.15;;;2.50;;
22223;SDS011;11281;52.194;21.006;2022-07-10T22:54:02;2.95;;;1.83;;
22223;SDS011;11281;52.194;21.006;2022-07-10T22:58:05;4.55;;;2.42;;
22223;SDS011;11281;52.194;21.006;2022-07-10T23:02:06;5.40;;;2.50;;
22223;SDS011;11281;52.194;21.006;2022-07-10T23:06:08;5.68;;;2.25;;
22223;SDS011;11281;52.194;21.006;2022-07-10T23:10:10;6.32;;;2.45;;
22223;SDS011;11281;52.194;21.006;2022-07-10T23:14:11;5.05;;;2.35;;
22223;SDS011;11281;52.194;21.006;2022-07-10T23:18:13;4.35;;;2.30;;
22223;SDS011;11281;52.194;21.006;2022-07-10T23:22:14;2.42;;;2.20;;
22223;SDS011;11281;52.194;21.006;2022-07-10T23:26:16;5.60;;;2.40;;
22223;SDS011;11281;52.194;21.006;2022-07-10T23:30:18;5.22;;;2.20;;
22223;SDS011;11281;52.194;21.006;2022-07-10T23:34:19;5.40;;;2.00;;
22223;SDS011;11281;52.194;21.006;2022-07-10T23:38:21;4.45;;;2.20;;
22223;SDS011;11281;52.194;21.006;2022-07-10T23:42:23;5.25;;;2.42;;
22223;SDS011;11281;52.194;21.006;2022-07-10T23:46:24;3.25;;;2.08;;
22223;SDS011;11281;52.194;21.006;2022-07-10T23:50:26;2.63;;;2.22;;
22223;SDS011;11281;52.194;21.006;2022-07-10T23:54:28;4.50;;;2.30;;
22223;SDS011;11281;52.194;21.006;2022-07-10T23:58:30;4.20;;;2.03;;
